createdAt,value
2023-01-09T00:01:57.394Z,9.20
2023-01-09T00:06:59.685Z,9.70
2023-01-09T00:12:02.772Z,9.80
2023-01-09T00:17:04.866Z,9.40
2023-01-09T00:22:09.563Z,9.80
2023-01-09T00:27:12.498Z,9.60
2023-01-09T00:32:14.712Z,9.20
2023-01-09T00:37:16.880Z,9.20
2023-01-09T00:42:29.930Z,9.40
2023-01-09T00:47:43.250Z,9.30
2023-01-09T00:52:47.232Z,9.20
2023-01-09T00:57:49.738Z,9.10
2023-01-09T01:02:51.887Z,9.30
2023-01-09T01:07:53.884Z,9.70
2023-01-09T01:12:55.901Z,9.60
2023-01-09T01:17:58.417Z,9.40
2023-01-09T01:23:00.596Z,9.30
2023-01-09T01:28:02.582Z,9.00
2023-01-09T01:33:04.611Z,9.10
2023-01-09T01:38:06.624Z,9.10
2023-01-09T01:43:12.914Z,9.00
2023-01-09T01:48:30.065Z,8.80
2023-01-09T01:53:43.504Z,8.70
2023-01-09T01:59:06.259Z,8.70
2023-01-09T02:04:09.309Z,8.70
2023-01-09T02:09:15.284Z,8.70
2023-01-09T02:14:18.240Z,8.70
2023-01-09T02:20:22.670Z,8.60
2023-01-09T02:25:55.411Z,8.60
2023-01-09T02:31:28.247Z,8.60
2023-01-09T02:37:10.963Z,8.80
2023-01-09T02:42:25.317Z,8.70
2023-01-09T02:47:30.551Z,8.60
2023-01-09T02:52:41.478Z,8.60
2023-01-09T02:58:14.662Z,8.50
2023-01-09T03:03:29.536Z,8.60
2023-01-09T03:08:43.590Z,8.70
2023-01-09T03:13:53.447Z,8.70
2023-01-09T03:18:58.563Z,8.60
2023-01-09T03:24:02.900Z,8.70
2023-01-09T03:29:04.967Z,8.40
2023-01-09T03:34:07.004Z,8.20
2023-01-09T03:39:08.995Z,8.20
2023-01-09T03:44:11.030Z,8.20
2023-01-09T03:49:14.085Z,8.40
2023-01-09T03:54:16.525Z,8.60
2023-01-09T03:59:18.778Z,8.50
2023-01-09T04:04:20.818Z,8.40
2023-01-09T04:09:23.035Z,8.40
2023-01-09T04:14:25.163Z,8.30
2023-01-09T04:19:27.200Z,8.40
2023-01-09T04:24:29.434Z,8.30
2023-01-09T04:29:31.442Z,8.30
2023-01-09T04:34:33.495Z,8.20
2023-01-09T04:39:35.698Z,8.20
2023-01-09T04:44:38.368Z,8.00
2023-01-09T04:49:40.701Z,7.90
2023-01-09T04:54:42.677Z,7.80
2023-01-09T04:59:45.174Z,7.70
2023-01-09T05:04:47.403Z,7.70
2023-01-09T05:09:49.671Z,7.80
2023-01-09T05:14:51.789Z,7.60
2023-01-09T05:19:54.122Z,7.50
2023-01-09T05:24:56.735Z,7.40
2023-01-09T05:29:58.963Z,7.50
2023-01-09T05:35:01.000Z,7.70
2023-01-09T05:40:04.038Z,7.60
2023-01-09T05:45:07.580Z,7.30
2023-01-09T05:50:14.591Z,7.50
2023-01-09T05:55:17.785Z,7.20
2023-01-09T06:00:20.196Z,7.20
2023-01-09T06:05:22.211Z,7.20
2023-01-09T06:10:24.204Z,7.30
2023-01-09T06:15:26.435Z,7.50
2023-01-09T06:20:28.664Z,7.60
2023-01-09T06:25:30.726Z,7.50
2023-01-09T06:30:34.128Z,7.50
2023-01-09T06:35:36.250Z,7.20
2023-01-09T06:40:38.386Z,6.90
2023-01-09T06:45:42.520Z,7.00
2023-01-09T06:50:46.017Z,7.10
2023-01-09T06:55:48.265Z,6.90
2023-01-09T07:00:50.429Z,6.60
2023-01-09T07:05:52.658Z,6.70
2023-01-09T07:10:54.745Z,6.70
2023-01-09T07:15:56.802Z,7.10
2023-01-09T07:20:58.827Z,6.90
2023-01-09T07:26:01.620Z,6.80
2023-01-09T07:31:04.828Z,6.60
2023-01-09T07:36:07.504Z,6.50
2023-01-09T07:41:09.857Z,6.70
2023-01-09T07:46:12.125Z,6.60
2023-01-09T07:51:14.694Z,6.60
2023-01-09T07:56:16.845Z,6.50
2023-01-09T08:01:18.994Z,6.40
2023-01-09T08:06:21.112Z,6.30
2023-01-09T08:11:23.434Z,6.60
2023-01-09T08:16:25.571Z,6.70
2023-01-09T08:21:27.647Z,6.60
2023-01-09T08:26:29.717Z,6.70
2023-01-09T08:31:31.805Z,6.80
2023-01-09T08:36:33.970Z,6.80
2023-01-09T08:41:54.781Z,6.80
2023-01-09T08:47:05.674Z,7.00
2023-01-09T08:52:08.027Z,7.00
2023-01-09T08:57:10.199Z,7.10
2023-01-09T09:02:12.305Z,7.10
2023-01-09T09:07:14.901Z,7.10
2023-01-09T09:12:17.058Z,7.30
2023-01-09T09:17:19.067Z,7.50
2023-01-09T09:22:21.307Z,7.30
2023-01-09T09:27:23.467Z,7.50
2023-01-09T09:32:25.584Z,7.70
2023-01-09T09:37:27.799Z,7.70
2023-01-09T09:43:06.879Z,7.70
2023-01-09T09:48:33.760Z,8.00
2023-01-09T09:53:55.732Z,8.00
2023-01-09T09:59:11.301Z,8.10
2023-01-09T10:04:18.457Z,8.60
2023-01-09T10:09:51.387Z,8.90
2023-01-09T10:14:59.239Z,9.00
2023-01-09T10:20:44.993Z,10.30
2023-01-09T10:26:11.954Z,9.00
2023-01-09T10:31:27.791Z,8.90
2023-01-09T10:37:00.206Z,8.90
2023-01-09T10:42:34.457Z,9.00
2023-01-09T10:47:40.915Z,8.70
2023-01-09T10:52:43.991Z,8.70
2023-01-09T10:58:02.340Z,8.90
2023-01-09T11:03:04.515Z,8.50
2023-01-09T11:08:09.797Z,8.50
2023-01-09T11:13:38.428Z,8.50
2023-01-09T11:18:57.764Z,8.40
2023-01-09T11:24:22.412Z,8.50
2023-01-09T11:29:24.685Z,8.70
2023-01-09T11:34:33.659Z,9.90
2023-01-09T11:39:41.850Z,9.60
2023-01-09T11:44:44.136Z,10.30
2023-01-09T11:49:51.320Z,10.00
2023-01-09T11:55:05.949Z,12.60
2023-01-09T12:00:24.253Z,10.90
2023-01-09T12:05:51.126Z,9.90
2023-01-09T12:11:33.158Z,9.60
2023-01-09T12:17:27.600Z,9.70
2023-01-09T12:22:48.891Z,9.80
2023-01-09T12:28:44.590Z,10.10
2023-01-09T12:34:25.995Z,9.80
2023-01-09T12:40:12.542Z,9.50
2023-01-09T12:45:55.920Z,9.70
2023-01-09T12:51:28.471Z,10.10
2023-01-09T12:56:41.028Z,9.50
2023-01-09T13:01:48.826Z,9.50
2023-01-09T13:06:58.374Z,9.60
2023-01-09T13:12:21.511Z,9.80
2023-01-09T13:17:39.094Z,9.60
2023-01-09T13:22:43.622Z,9.50
2023-01-09T13:27:57.981Z,9.30
2023-01-09T13:33:17.675Z,9.30
2023-01-09T13:38:24.209Z,9.20
2023-01-09T13:43:26.281Z,9.60
2023-01-09T13:48:40.501Z,9.50
2023-01-09T13:53:45.631Z,9.30
2023-01-09T13:59:00.269Z,9.00
2023-01-09T14:04:21.258Z,8.90
2023-01-09T14:09:23.691Z,8.90
2023-01-09T14:14:33.257Z,8.80
2023-01-09T14:19:38.837Z,8.90
2023-01-09T14:24:46.709Z,9.00
2023-01-09T14:29:49.007Z,8.90
2023-01-09T14:34:57.959Z,9.00
2023-01-09T14:40:00.710Z,8.70
2023-01-09T14:45:19.379Z,8.50
2023-01-09T14:50:58.635Z,8.20
2023-01-09T14:56:06.793Z,8.20
2023-01-09T15:01:18.959Z,8.10
2023-01-09T15:06:31.093Z,8.00
2023-01-09T15:11:37.199Z,8.00
2023-01-09T15:16:39.437Z,7.90
2023-01-09T15:21:58.439Z,8.00
2023-01-09T15:27:11.183Z,8.00
2023-01-09T15:32:26.720Z,8.20
2023-01-09T15:37:33.178Z,8.20
2023-01-09T15:42:58.527Z,8.20
2023-01-09T15:48:24.649Z,8.10
2023-01-09T15:53:29.219Z,8.10
2023-01-09T15:58:40.893Z,8.30
2023-01-09T16:03:43.462Z,8.70
2023-01-09T16:08:55.828Z,8.60
2023-01-09T16:14:17.600Z,7.70
2023-01-09T16:19:48.995Z,7.40
2023-01-09T16:24:55.787Z,7.20
2023-01-09T16:30:02.524Z,7.10
2023-01-09T16:35:14.379Z,7.10
2023-01-09T16:40:24.409Z,7.20
2023-01-09T16:45:40.960Z,7.30
2023-01-09T16:50:44.574Z,7.50
2023-01-09T16:55:47.186Z,7.50
2023-01-09T17:00:49.439Z,7.10
2023-01-09T17:06:00.923Z,6.90
2023-01-09T17:11:04.175Z,7.10
2023-01-09T17:16:07.017Z,7.00
2023-01-09T17:21:24.940Z,6.80
2023-01-09T17:26:45.459Z,6.90
2023-01-09T17:31:47.775Z,7.00
2023-01-09T17:36:49.879Z,6.80
2023-01-09T17:51:57.383Z,6.70
2023-01-09T17:57:01.481Z,6.70
2023-01-09T18:02:03.641Z,6.80
2023-01-09T18:07:05.780Z,6.80
2023-01-09T18:12:08.457Z,6.70
2023-01-09T18:17:13.325Z,6.70
2023-01-09T18:22:15.724Z,6.70
2023-01-09T18:27:18.025Z,6.90
2023-01-09T18:32:20.300Z,6.80
2023-01-09T18:37:22.405Z,6.80
2023-01-09T18:42:24.632Z,6.90
2023-01-09T18:47:26.686Z,6.80
2023-01-09T18:52:29.147Z,6.70
2023-01-09T18:57:31.222Z,6.50
2023-01-09T19:02:33.487Z,6.50
2023-01-09T20:58:49.737Z,6.70
2023-01-09T21:03:54.517Z,6.30
2023-01-09T21:08:56.696Z,6.70
2023-01-09T21:13:59.845Z,6.90
2023-01-09T21:19:01.972Z,6.90
2023-01-09T21:24:04.642Z,6.80
2023-01-09T21:29:08.435Z,6.70
2023-01-09T21:34:14.716Z,6.80
2023-01-09T21:39:20.065Z,6.80
2023-01-09T21:44:40.942Z,7.20
2023-01-09T21:49:44.791Z,7.10
2023-01-09T21:54:47.223Z,7.00
2023-01-09T21:59:49.323Z,6.80
2023-01-09T22:04:51.590Z,6.70
2023-01-09T22:09:53.637Z,6.60
2023-01-09T22:14:55.775Z,6.70
2023-01-09T22:19:57.935Z,6.70
2023-01-09T22:25:01.509Z,6.70
2023-01-09T22:30:03.861Z,6.60
2023-01-09T22:35:07.076Z,6.60
2023-01-09T22:40:10.226Z,6.50
2023-01-09T22:45:12.504Z,6.50
2023-01-09T22:50:15.302Z,6.40
2023-01-09T22:55:18.382Z,6.50
2023-01-09T23:00:20.657Z,6.40
2023-01-09T23:05:22.728Z,6.60
2023-01-09T23:10:24.916Z,6.60
2023-01-09T23:15:27.019Z,6.60
2023-01-09T23:20:29.068Z,6.60
2023-01-09T23:25:31.440Z,7.00
2023-01-09T23:30:33.438Z,6.80
2023-01-09T23:35:35.719Z,6.80
2023-01-09T23:40:41.460Z,6.90
2023-01-09T23:45:46.037Z,7.10
2023-01-09T23:50:54.146Z,6.90
2023-01-09T23:55:56.383Z,6.70
